Terminal Aerodrome Forecast
Issued by NWS

Home | Current Version | Previous Version | Text Only | Print | Product List | Glossary On
Versions: 1 2 3 4 5 6 7 8 9 10 11 12 13 14 15 16
932
FTUS46 KSGX 241759
TAFSNA
TAF
KSNA 241759Z 2418/2518 20011KT P6SM SCT200
     FM250300 19006KT P6SM SCT009 SCT200
     FM250900 VRB04KT P6SM OVC008
     FM251600 VRB04KT P6SM SCT010 SCT200=

USA.gov is the U.S. government's official web portal to all federal, state and local government web resources and services.